Bay City, TX (77404)

1:12 PM CDT on March 24, 2017 (GMT -0500)
ME9924 | | Change Station
Active Advisory: Wind Advisory

Elev 52 ft 28.99 °N, 95.98 °W | Updated 5 minutes ago

Overcast
Overcast
76.0 °F
Feels Like 77 °F
N
14.0
Wind Variable Wind from South
Gusts 24.0 mph

Today
High -- | Low -- °F
--% Chance of Precip.
Yesterday
High -- | Low -- °F
Precip. -- in
Pressure 30.03 in
Visibility 10.0 miles
Clouds Overcast 2600 ft
Heat Index 77 °F
Dew Point 67 °F
Humidity 74%
Rainfall 0.00 in
Snow Depth Not available.
7:22 AM 7:37 PM
Waning Crescent, 14% visible
METAR KBYY 241755Z AUTO 16016G21KT 10SM OVC026 25/19 A3003 RMK AO2 T02500190
Pressure 30.03 in
Visibility 10.0 miles
Clouds Overcast 2600 ft
Heat Index 77 °F
Dew Point 67 °F
Humidity 74%
Rainfall 0.00 in
Snow Depth Not available.
7:22 AM 7:37 PM
Waning Crescent, 14% visible
METAR KBYY 241755Z AUTO 16016G21KT 10SM OVC026 25/19 A3003 RMK AO2 T02500190

Get Your Daily Forecast Email!

Thanks for signing up!

Be on the lookout for a verification email in your inbox.

You'll start receiving severe weather alerts in your inbox..

×

10-Day Weather Forecast

Almanac

Astronomy

Mar. 24, 2017 Rise Set
Actual Time
Civil Twilight
Nautical Twilight
Astronomical Twilight
Moon
Length of Visible Light
Length of Day
Tomorrow will be .
, % of the Moon is Illuminated

Today's Extremes

State Highs State Lows

Community

WunderPhotos

Upload Photos

1,962,540 photos uploaded!

WunderBlog® & News

Nearby

Air Quality

  Air Quality AQ Index Pollutant
Not available.

Snow Depth

Station Depth Elevation

Earthquake Activity

City Distance Mag. Time & Date
Minimum magnitude displayed is 2.5.

Earthquake Activity

City Distance Mag. Time & Date
Minimum magnitude displayed is 2.5.

Coastal Water Temperatures

Place Temperature

Stations

Nearby Weather Stations

Station Location Temp. Windchill Dew Point Humidity Wind Precip. Elev Updated Type
                   

Watches & Warnings

Wind Advisory
Issued: 4:25 AM CDT Mar. 24, 2017 – National Weather Service

... Wind Advisory in effect until 4 PM CDT this afternoon...

The National Weather Service in Houston/Galveston has issued a
Wind Advisory, which is in effect until 4 PM CDT this afternoon.

* Event... strong south winds between 20 and 30 mph.

* Timing... through mid-afternoon.

* Impact... unsecured light weight items could be tossed about by
strong winds. Drivers on east west oriented roads should prepare
for strong cross winds and drivers of high profile vehicles
should be particularly cautious.

Precautionary/preparedness actions...

Drivers of vans... campers... trailers... and other high-profile
vehicles should be alert to the danger of these winds...
especially when driving along east to west oriented roads